Monk Fryston, United Kingdom
Current Conditions -  °F | °C
As of 11:20 AM on Friday 28 Nov 2014 (Local Time) from EGNM Reporting Station
Drizzle Drizzle  
Wind Chill: 44°   Ceiling: Unl
Heat Index: 48°   Visibility: 0.06mi
Dew Point: 48°   Wind: 10mph
Humidity: 100%   Direction: 80°E
Pressure: 29.71"   Gusts: NA
Location:  53.76°N, 1.24°W
Report Text: EGNM 281120Z 08009KT 050V130 0100 R32/0325 -DZ FG VV/// 09/09 Q1006
Loading
Personal Weather Stations






























Interactive Weather Map New forecast layout! Learn more

10-Day Weather Forecast

Advertisements
Track Severe Weather on mobile